Alexander, Kansas
Current Conditions -  °F | °C
As of 10:55 AM on Sunday 23 Nov 2014 (Local Time) from KHYS Reporting Station
Overcast Overcast  
Wind Chill: 36°   Ceiling: 2600
Heat Index: 46°   Visibility: 10mi
Dew Point: 30°   Wind: 40mph
Humidity: 53%   Direction: 350°N
Pressure: 29.61"   Gusts: 47mph
Location:  38.47°N, 99.55°W
Report Text: KHYS 231655Z AUTO 35035G41KT 10SM BKN026 BKN030 OVC065 08/M01 A2961 RMK AO1
Loading
Personal Weather Stations






























Interactive Weather Map New forecast layout! Learn more

10-Day Weather Forecast

Advertisements
Track Severe Weather on mobile